sensor_id;sensor_type;location;lat;lon;timestamp;P1;durP1;ratioP1;P2;durP2;ratioP2
50769;SDS011;36740;48.698;11.472;2022-10-31T00:02:30;9.18;;;7.88;;
50769;SDS011;36740;48.698;11.472;2022-10-31T00:05:16;10.27;;;6.38;;
50769;SDS011;36740;48.698;11.472;2022-10-31T00:08:02;11.25;;;7.55;;
50769;SDS011;36740;48.698;11.472;2022-10-31T00:10:47;8.10;;;6.20;;
50769;SDS011;36740;48.698;11.472;2022-10-31T00:13:33;10.20;;;7.75;;
50769;SDS011;36740;48.698;11.472;2022-10-31T00:16:21;11.98;;;7.82;;
50769;SDS011;36740;48.698;11.472;2022-10-31T00:19:08;12.00;;;5.78;;
50769;SDS011;36740;48.698;11.472;2022-10-31T00:21:54;10.35;;;7.72;;
50769;SDS011;36740;48.698;11.472;2022-10-31T00:24:40;9.90;;;6.97;;
50769;SDS011;36740;48.698;11.472;2022-10-31T00:27:25;8.80;;;6.60;;
50769;SDS011;36740;48.698;11.472;2022-10-31T00:30:11;10.65;;;7.18;;
50769;SDS011;36740;48.698;11.472;2022-10-31T00:32:57;12.82;;;6.97;;
50769;SDS011;36740;48.698;11.472;2022-10-31T00:35:48;12.77;;;7.10;;
50769;SDS011;36740;48.698;11.472;2022-10-31T00:38:35;6.93;;;4.95;;
50769;SDS011;36740;48.698;11.472;2022-10-31T00:41:20;10.73;;;6.13;;
50769;SDS011;36740;48.698;11.472;2022-10-31T00:44:06;16.00;;;7.10;;
50769;SDS011;36740;48.698;11.472;2022-10-31T00:46:52;11.23;;;6.57;;
50769;SDS011;36740;48.698;11.472;2022-10-31T00:49:38;13.25;;;6.35;;
50769;SDS011;36740;48.698;11.472;2022-10-31T00:52:23;9.77;;;5.07;;
50769;SDS011;36740;48.698;11.472;2022-10-31T00:55:09;7.45;;;5.40;;
50769;SDS011;36740;48.698;11.472;2022-10-31T00:57:55;10.55;;;5.28;;
50769;SDS011;36740;48.698;11.472;2022-10-31T01:00:41;10.18;;;6.50;;
50769;SDS011;36740;48.698;11.472;2022-10-31T01:03:28;8.93;;;5.50;;
50769;SDS011;36740;48.698;11.472;2022-10-31T01:06:16;7.78;;;5.32;;
50769;SDS011;36740;48.698;11.472;2022-10-31T01:09:01;9.75;;;7.25;;
50769;SDS011;36740;48.698;11.472;2022-10-31T01:11:47;10.95;;;7.03;;
50769;SDS011;36740;48.698;11.472;2022-10-31T01:14:33;9.07;;;6.70;;
50769;SDS011;36740;48.698;11.472;2022-10-31T01:17:19;10.13;;;6.72;;
50769;SDS011;36740;48.698;11.472;2022-10-31T01:20:05;16.60;;;8.32;;
50769;SDS011;36740;48.698;11.472;2022-10-31T01:22:58;14.70;;;7.57;;
50769;SDS011;36740;48.698;11.472;2022-10-31T01:25:44;12.63;;;7.05;;
50769;SDS011;36740;48.698;11.472;2022-10-31T01:28:30;11.25;;;7.00;;
50769;SDS011;36740;48.698;11.472;2022-10-31T01:31:17;13.68;;;8.50;;
50769;SDS011;36740;48.698;11.472;2022-10-31T01:34:03;10.27;;;7.07;;
50769;SDS011;36740;48.698;11.472;2022-10-31T01:36:50;13.05;;;6.75;;
50769;SDS011;36740;48.698;11.472;2022-10-31T01:39:36;9.23;;;5.78;;
50769;SDS011;36740;48.698;11.472;2022-10-31T01:42:22;11.25;;;6.75;;
50769;SDS011;36740;48.698;11.472;2022-10-31T01:45:08;11.02;;;6.22;;
50769;SDS011;36740;48.698;11.472;2022-10-31T01:47:55;9.40;;;5.78;;
50769;SDS011;36740;48.698;11.472;2022-10-31T01:50:41;8.93;;;6.68;;
50769;SDS011;36740;48.698;11.472;2022-10-31T01:53:30;14.45;;;9.27;;
50769;SDS011;36740;48.698;11.472;2022-10-31T01:56:17;13.77;;;7.93;;
50769;SDS011;36740;48.698;11.472;2022-10-31T01:59:04;18.40;;;9.15;;
50769;SDS011;36740;48.698;11.472;2022-10-31T02:01:54;9.65;;;6.88;;
50769;SDS011;36740;48.698;11.472;2022-10-31T02:04:40;9.10;;;6.60;;
50769;SDS011;36740;48.698;11.472;2022-10-31T02:07:27;12.00;;;7.28;;
50769;SDS011;36740;48.698;11.472;2022-10-31T02:10:22;12.25;;;7.13;;
50769;SDS011;36740;48.698;11.472;2022-10-31T02:13:08;9.18;;;6.05;;
50769;SDS011;36740;48.698;11.472;2022-10-31T02:15:56;6.63;;;5.68;;
50769;SDS011;36740;48.698;11.472;2022-10-31T02:18:43;13.85;;;7.00;;
50769;SDS011;36740;48.698;11.472;2022-10-31T02:21:37;7.80;;;4.70;;
50769;SDS011;36740;48.698;11.472;2022-10-31T02:30:23;8.77;;;5.90;;
50769;SDS011;36740;48.698;11.472;2022-10-31T02:36:38;6.28;;;4.40;;
50769;SDS011;36740;48.698;11.472;2022-10-31T02:39:35;5.72;;;4.60;;
50769;SDS011;36740;48.698;11.472;2022-10-31T02:42:38;6.93;;;5.25;;
50769;SDS011;36740;48.698;11.472;2022-10-31T02:48:18;6.90;;;5.13;;
50769;SDS011;36740;48.698;11.472;2022-10-31T02:51:06;7.15;;;4.50;;
50769;SDS011;36740;48.698;11.472;2022-10-31T02:53:54;8.18;;;5.15;;
50769;SDS011;36740;48.698;11.472;2022-10-31T02:56:40;6.78;;;4.78;;
50769;SDS011;36740;48.698;11.472;2022-10-31T02:59:26;10.07;;;4.68;;
50769;SDS011;36740;48.698;11.472;2022-10-31T03:05:36;6.60;;;5.00;;
50769;SDS011;36740;48.698;11.472;2022-10-31T03:08:54;14.93;;;5.25;;
50769;SDS011;36740;48.698;11.472;2022-10-31T03:15:00;6.15;;;4.85;;
50769;SDS011;36740;48.698;11.472;2022-10-31T03:20:59;7.20;;;5.70;;
50769;SDS011;36740;48.698;11.472;2022-10-31T03:23:51;5.90;;;4.35;;
50769;SDS011;36740;48.698;11.472;2022-10-31T03:26:41;7.32;;;4.57;;
50769;SDS011;36740;48.698;11.472;2022-10-31T03:29:32;7.30;;;5.25;;
50769;SDS011;36740;48.698;11.472;2022-10-31T03:32:26;7.32;;;4.85;;
50769;SDS011;36740;48.698;11.472;2022-10-31T03:35:17;6.22;;;5.25;;
50769;SDS011;36740;48.698;11.472;2022-10-31T03:38:05;10.65;;;5.22;;
50769;SDS011;36740;48.698;11.472;2022-10-31T03:40:52;7.55;;;5.72;;
50769;SDS011;36740;48.698;11.472;2022-10-31T03:43:46;11.48;;;6.78;;
50769;SDS011;36740;48.698;11.472;2022-10-31T03:46:38;9.82;;;5.53;;
50769;SDS011;36740;48.698;11.472;2022-10-31T03:49:25;8.35;;;6.22;;
50769;SDS011;36740;48.698;11.472;2022-10-31T03:55:19;5.82;;;5.10;;
50769;SDS011;36740;48.698;11.472;2022-10-31T03:58:13;8.27;;;6.22;;
50769;SDS011;36740;48.698;11.472;2022-10-31T04:01:12;8.23;;;6.18;;
50769;SDS011;36740;48.698;11.472;2022-10-31T04:04:01;9.38;;;6.43;;
50769;SDS011;36740;48.698;11.472;2022-10-31T04:06:47;8.57;;;5.93;;
50769;SDS011;36740;48.698;11.472;2022-10-31T04:09:36;7.13;;;4.80;;
50769;SDS011;36740;48.698;11.472;2022-10-31T04:12:25;9.73;;;5.63;;
50769;SDS011;36740;48.698;11.472;2022-10-31T04:15:14;7.17;;;5.47;;
50769;SDS011;36740;48.698;11.472;2022-10-31T04:18:01;5.75;;;4.32;;
50769;SDS011;36740;48.698;11.472;2022-10-31T04:20:58;7.50;;;5.50;;
50769;SDS011;36740;48.698;11.472;2022-10-31T04:23:45;10.60;;;5.55;;
50769;SDS011;36740;48.698;11.472;2022-10-31T04:26:31;8.52;;;4.38;;
50769;SDS011;36740;48.698;11.472;2022-10-31T04:29:17;7.82;;;6.00;;
50769;SDS011;36740;48.698;11.472;2022-10-31T04:32:02;10.15;;;6.57;;
50769;SDS011;36740;48.698;11.472;2022-10-31T04:34:48;8.20;;;4.93;;
50769;SDS011;36740;48.698;11.472;2022-10-31T04:37:34;7.25;;;5.55;;
50769;SDS011;36740;48.698;11.472;2022-10-31T04:40:20;7.22;;;5.32;;
50769;SDS011;36740;48.698;11.472;2022-10-31T04:43:05;7.43;;;5.93;;
50769;SDS011;36740;48.698;11.472;2022-10-31T04:45:51;13.82;;;6.43;;
50769;SDS011;36740;48.698;11.472;2022-10-31T04:48:37;6.93;;;4.38;;
50769;SDS011;36740;48.698;11.472;2022-10-31T04:51:23;8.20;;;6.30;;
50769;SDS011;36740;48.698;11.472;2022-10-31T04:54:08;7.00;;;5.43;;
50769;SDS011;36740;48.698;11.472;2022-10-31T04:56:54;8.57;;;6.78;;
50769;SDS011;36740;48.698;11.472;2022-10-31T04:59:40;7.78;;;4.97;;
50769;SDS011;36740;48.698;11.472;2022-10-31T05:02:26;9.02;;;5.32;;
50769;SDS011;36740;48.698;11.472;2022-10-31T05:05:12;8.55;;;6.50;;
50769;SDS011;36740;48.698;11.472;2022-10-31T05:07:59;11.30;;;6.00;;
50769;SDS011;36740;48.698;11.472;2022-10-31T05:10:44;10.98;;;6.10;;
50769;SDS011;36740;48.698;11.472;2022-10-31T05:13:30;9.32;;;5.22;;
50769;SDS011;36740;48.698;11.472;2022-10-31T05:16:16;9.60;;;5.35;;
50769;SDS011;36740;48.698;11.472;2022-10-31T05:19:02;9.38;;;6.40;;
50769;SDS011;36740;48.698;11.472;2022-10-31T05:21:47;7.25;;;5.72;;
50769;SDS011;36740;48.698;11.472;2022-10-31T05:24:33;10.07;;;5.20;;
50769;SDS011;36740;48.698;11.472;2022-10-31T05:27:21;8.85;;;5.95;;
50769;SDS011;36740;48.698;11.472;2022-10-31T05:30:07;7.32;;;5.13;;
50769;SDS011;36740;48.698;11.472;2022-10-31T05:32:54;8.52;;;5.78;;
50769;SDS011;36740;48.698;11.472;2022-10-31T05:35:40;6.45;;;5.60;;
50769;SDS011;36740;48.698;11.472;2022-10-31T05:38:26;24.27;;;6.18;;
50769;SDS011;36740;48.698;11.472;2022-10-31T05:41:12;7.38;;;5.15;;
50769;SDS011;36740;48.698;11.472;2022-10-31T05:43:58;7.45;;;4.85;;
50769;SDS011;36740;48.698;11.472;2022-10-31T05:46:45;11.55;;;5.40;;
50769;SDS011;36740;48.698;11.472;2022-10-31T05:49:31;8.05;;;5.78;;
50769;SDS011;36740;48.698;11.472;2022-10-31T05:52:17;8.75;;;6.40;;
50769;SDS011;36740;48.698;11.472;2022-10-31T05:55:03;7.78;;;5.85;;
50769;SDS011;36740;48.698;11.472;2022-10-31T05:57:49;12.95;;;8.95;;
50769;SDS011;36740;48.698;11.472;2022-10-31T06:00:35;7.70;;;5.18;;
50769;SDS011;36740;48.698;11.472;2022-10-31T06:03:21;8.45;;;6.47;;
50769;SDS011;36740;48.698;11.472;2022-10-31T06:06:07;8.27;;;5.15;;
50769;SDS011;36740;48.698;11.472;2022-10-31T06:08:53;6.53;;;4.68;;
50769;SDS011;36740;48.698;11.472;2022-10-31T06:11:38;10.98;;;6.40;;
50769;SDS011;36740;48.698;11.472;2022-10-31T06:14:24;12.25;;;6.88;;
50769;SDS011;36740;48.698;11.472;2022-10-31T06:17:10;20.92;;;8.55;;
50769;SDS011;36740;48.698;11.472;2022-10-31T06:19:56;9.98;;;5.97;;
50769;SDS011;36740;48.698;11.472;2022-10-31T06:22:41;7.72;;;5.22;;
50769;SDS011;36740;48.698;11.472;2022-10-31T06:25:27;12.82;;;6.25;;
50769;SDS011;36740;48.698;11.472;2022-10-31T06:28:13;10.73;;;7.68;;
50769;SDS011;36740;48.698;11.472;2022-10-31T06:30:59;13.00;;;6.53;;
50769;SDS011;36740;48.698;11.472;2022-10-31T06:33:45;8.02;;;5.47;;
50769;SDS011;36740;48.698;11.472;2022-10-31T06:36:31;12.20;;;5.35;;
50769;SDS011;36740;48.698;11.472;2022-10-31T06:39:16;10.90;;;6.65;;
50769;SDS011;36740;48.698;11.472;2022-10-31T06:42:02;12.02;;;5.45;;
50769;SDS011;36740;48.698;11.472;2022-10-31T06:44:49;9.77;;;7.22;;
50769;SDS011;36740;48.698;11.472;2022-10-31T06:47:34;10.82;;;6.28;;
50769;SDS011;36740;48.698;11.472;2022-10-31T06:50:20;11.43;;;6.82;;
50769;SDS011;36740;48.698;11.472;2022-10-31T06:53:07;9.63;;;6.60;;
50769;SDS011;36740;48.698;11.472;2022-10-31T06:55:54;10.65;;;7.15;;
50769;SDS011;36740;48.698;11.472;2022-10-31T06:58:41;11.35;;;6.70;;
50769;SDS011;36740;48.698;11.472;2022-10-31T07:01:27;27.23;;;8.70;;
50769;SDS011;36740;48.698;11.472;2022-10-31T07:04:12;11.60;;;7.32;;
50769;SDS011;36740;48.698;11.472;2022-10-31T07:06:58;12.38;;;7.65;;
50769;SDS011;36740;48.698;11.472;2022-10-31T07:09:44;12.95;;;6.78;;
50769;SDS011;36740;48.698;11.472;2022-10-31T07:12:30;14.52;;;7.40;;
50769;SDS011;36740;48.698;11.472;2022-10-31T07:15:15;11.75;;;7.18;;
50769;SDS011;36740;48.698;11.472;2022-10-31T07:18:05;23.73;;;9.65;;
50769;SDS011;36740;48.698;11.472;2022-10-31T07:20:53;15.07;;;6.97;;
50769;SDS011;36740;48.698;11.472;2022-10-31T07:23:39;10.70;;;6.97;;
50769;SDS011;36740;48.698;11.472;2022-10-31T07:26:24;14.52;;;9.73;;
50769;SDS011;36740;48.698;11.472;2022-10-31T07:29:11;12.70;;;8.45;;
50769;SDS011;36740;48.698;11.472;2022-10-31T07:31:57;18.30;;;9.27;;
50769;SDS011;36740;48.698;11.472;2022-10-31T07:34:42;12.38;;;9.05;;
50769;SDS011;36740;48.698;11.472;2022-10-31T07:37:31;18.98;;;9.13;;
50769;SDS011;36740;48.698;11.472;2022-10-31T07:40:17;17.15;;;10.40;;
50769;SDS011;36740;48.698;11.472;2022-10-31T07:43:04;13.35;;;8.30;;
50769;SDS011;36740;48.698;11.472;2022-10-31T07:45:51;19.38;;;9.25;;
50769;SDS011;36740;48.698;11.472;2022-10-31T07:48:37;15.70;;;10.02;;
50769;SDS011;36740;48.698;11.472;2022-10-31T07:51:23;13.40;;;8.20;;
50769;SDS011;36740;48.698;11.472;2022-10-31T07:54:09;11.52;;;8.05;;
50769;SDS011;36740;48.698;11.472;2022-10-31T07:56:55;11.60;;;8.23;;
50769;SDS011;36740;48.698;11.472;2022-10-31T07:59:40;14.60;;;9.45;;
50769;SDS011;36740;48.698;11.472;2022-10-31T08:02:26;41.78;;;10.57;;
50769;SDS011;36740;48.698;11.472;2022-10-31T08:05:12;14.90;;;9.63;;
50769;SDS011;36740;48.698;11.472;2022-10-31T08:07:58;15.30;;;9.90;;
50769;SDS011;36740;48.698;11.472;2022-10-31T08:10:44;14.02;;;8.52;;
50769;SDS011;36740;48.698;11.472;2022-10-31T08:13:30;26.50;;;10.80;;
50769;SDS011;36740;48.698;11.472;2022-10-31T08:16:16;22.38;;;8.40;;
50769;SDS011;36740;48.698;11.472;2022-10-31T08:19:01;12.43;;;8.60;;
50769;SDS011;36740;48.698;11.472;2022-10-31T08:21:50;13.27;;;8.75;;
50769;SDS011;36740;48.698;11.472;2022-10-31T08:24:36;15.40;;;8.90;;
50769;SDS011;36740;48.698;11.472;2022-10-31T08:27:22;14.90;;;7.95;;
50769;SDS011;36740;48.698;11.472;2022-10-31T08:30:08;11.00;;;8.48;;
50769;SDS011;36740;48.698;11.472;2022-10-31T08:33:01;13.75;;;10.10;;
50769;SDS011;36740;48.698;11.472;2022-10-31T08:36:01;15.25;;;9.68;;
50769;SDS011;36740;48.698;11.472;2022-10-31T08:38:47;15.57;;;12.13;;
50769;SDS011;36740;48.698;11.472;2022-10-31T08:41:33;12.07;;;8.73;;
50769;SDS011;36740;48.698;11.472;2022-10-31T08:44:20;25.33;;;10.35;;
50769;SDS011;36740;48.698;11.472;2022-10-31T08:47:06;15.32;;;10.98;;
50769;SDS011;36740;48.698;11.472;2022-10-31T08:49:52;13.23;;;9.80;;
50769;SDS011;36740;48.698;11.472;2022-10-31T08:52:37;16.98;;;11.05;;
50769;SDS011;36740;48.698;11.472;2022-10-31T08:55:23;21.80;;;11.05;;
50769;SDS011;36740;48.698;11.472;2022-10-31T08:58:13;17.77;;;11.38;;
50769;SDS011;36740;48.698;11.472;2022-10-31T09:01:01;20.55;;;12.27;;
50769;SDS011;36740;48.698;11.472;2022-10-31T09:03:47;17.77;;;11.63;;
50769;SDS011;36740;48.698;11.472;2022-10-31T09:06:33;21.80;;;12.30;;
50769;SDS011;36740;48.698;11.472;2022-10-31T09:09:18;15.73;;;10.75;;
50769;SDS011;36740;48.698;11.472;2022-10-31T09:12:04;34.65;;;13.50;;
50769;SDS011;36740;48.698;11.472;2022-10-31T09:14:50;28.73;;;13.57;;
50769;SDS011;36740;48.698;11.472;2022-10-31T09:17:36;23.85;;;14.18;;
50769;SDS011;36740;48.698;11.472;2022-10-31T09:20:22;18.58;;;14.77;;
50769;SDS011;36740;48.698;11.472;2022-10-31T09:23:18;27.40;;;13.48;;
50769;SDS011;36740;48.698;11.472;2022-10-31T09:26:05;26.17;;;11.98;;
50769;SDS011;36740;48.698;11.472;2022-10-31T09:28:51;21.38;;;13.07;;
50769;SDS011;36740;48.698;11.472;2022-10-31T09:31:37;19.17;;;12.70;;
50769;SDS011;36740;48.698;11.472;2022-10-31T09:34:23;70.32;;;16.83;;
50769;SDS011;36740;48.698;11.472;2022-10-31T09:37:09;15.05;;;11.43;;
50769;SDS011;36740;48.698;11.472;2022-10-31T09:39:55;20.20;;;12.13;;
50769;SDS011;36740;48.698;11.472;2022-10-31T09:48:42;20.85;;;13.63;;
50769;SDS011;36740;48.698;11.472;2022-10-31T09:51:34;25.15;;;13.65;;
50769;SDS011;36740;48.698;11.472;2022-10-31T09:54:44;37.13;;;13.13;;
50769;SDS011;36740;48.698;11.472;2022-10-31T09:57:42;21.10;;;14.73;;
50769;SDS011;36740;48.698;11.472;2022-10-31T10:00:29;19.05;;;12.75;;
50769;SDS011;36740;48.698;11.472;2022-10-31T10:09:07;25.80;;;16.88;;
50769;SDS011;36740;48.698;11.472;2022-10-31T10:15:21;27.83;;;13.88;;
50769;SDS011;36740;48.698;11.472;2022-10-31T10:28:20;22.00;;;14.50;;
50769;SDS011;36740;48.698;11.472;2022-10-31T10:31:10;25.40;;;14.05;;
50769;SDS011;36740;48.698;11.472;2022-10-31T10:37:03;27.52;;;18.55;;
50769;SDS011;36740;48.698;11.472;2022-10-31T10:40:06;23.30;;;15.80;;
50769;SDS011;36740;48.698;11.472;2022-10-31T10:49:32;27.83;;;17.05;;
50769;SDS011;36740;48.698;11.472;2022-10-31T10:52:25;23.40;;;17.25;;
50769;SDS011;36740;48.698;11.472;2022-10-31T10:58:33;29.25;;;18.40;;
50769;SDS011;36740;48.698;11.472;2022-10-31T11:01:21;29.27;;;20.35;;
50769;SDS011;36740;48.698;11.472;2022-10-31T11:04:14;28.25;;;19.73;;
50769;SDS011;36740;48.698;11.472;2022-10-31T11:07:11;30.70;;;15.23;;
50769;SDS011;36740;48.698;11.472;2022-10-31T11:10:06;25.15;;;18.40;;
50769;SDS011;36740;48.698;11.472;2022-10-31T11:13:14;26.10;;;16.23;;
50769;SDS011;36740;48.698;11.472;2022-10-31T11:16:07;36.22;;;23.65;;
50769;SDS011;36740;48.698;11.472;2022-10-31T11:19:05;33.47;;;20.20;;
50769;SDS011;36740;48.698;11.472;2022-10-31T11:21:54;29.80;;;20.38;;
50769;SDS011;36740;48.698;11.472;2022-10-31T11:25:00;43.72;;;24.52;;
50769;SDS011;36740;48.698;11.472;2022-10-31T11:27:46;31.40;;;22.60;;
50769;SDS011;36740;48.698;11.472;2022-10-31T11:30:35;37.08;;;22.70;;
50769;SDS011;36740;48.698;11.472;2022-10-31T11:33:34;46.13;;;24.77;;
50769;SDS011;36740;48.698;11.472;2022-10-31T11:36:32;38.70;;;21.48;;
50769;SDS011;36740;48.698;11.472;2022-10-31T11:39:22;37.15;;;24.05;;
50769;SDS011;36740;48.698;11.472;2022-10-31T11:42:09;31.67;;;21.15;;
50769;SDS011;36740;48.698;11.472;2022-10-31T11:44:56;36.30;;;21.17;;
50769;SDS011;36740;48.698;11.472;2022-10-31T11:47:46;29.20;;;23.20;;
50769;SDS011;36740;48.698;11.472;2022-10-31T11:50:35;29.33;;;17.38;;
50769;SDS011;36740;48.698;11.472;2022-10-31T11:56:18;39.30;;;20.58;;
50769;SDS011;36740;48.698;11.472;2022-10-31T11:59:05;30.13;;;20.45;;
50769;SDS011;36740;48.698;11.472;2022-10-31T12:02:00;29.70;;;21.10;;
50769;SDS011;36740;48.698;11.472;2022-10-31T12:04:49;33.35;;;23.23;;
50769;SDS011;36740;48.698;11.472;2022-10-31T12:07:48;33.83;;;21.88;;
50769;SDS011;36740;48.698;11.472;2022-10-31T12:10:38;39.93;;;21.90;;
50769;SDS011;36740;48.698;11.472;2022-10-31T12:13:51;37.17;;;22.73;;
50769;SDS011;36740;48.698;11.472;2022-10-31T12:17:10;35.75;;;24.38;;
50769;SDS011;36740;48.698;11.472;2022-10-31T12:26:23;33.43;;;22.50;;
50769;SDS011;36740;48.698;11.472;2022-10-31T12:29:35;46.92;;;26.70;;
50769;SDS011;36740;48.698;11.472;2022-10-31T12:45:27;33.17;;;23.27;;
50769;SDS011;36740;48.698;11.472;2022-10-31T12:48:28;34.72;;;22.70;;
50769;SDS011;36740;48.698;11.472;2022-10-31T12:54:44;44.78;;;28.90;;
50769;SDS011;36740;48.698;11.472;2022-10-31T12:57:47;45.20;;;25.23;;
50769;SDS011;36740;48.698;11.472;2022-10-31T13:00:37;62.78;;;38.28;;
50769;SDS011;36740;48.698;11.472;2022-10-31T13:04:03;53.20;;;30.48;;
50769;SDS011;36740;48.698;11.472;2022-10-31T13:06:48;44.60;;;27.45;;
50769;SDS011;36740;48.698;11.472;2022-10-31T13:13:06;40.30;;;24.65;;
50769;SDS011;36740;48.698;11.472;2022-10-31T13:16:19;44.55;;;27.77;;
50769;SDS011;36740;48.698;11.472;2022-10-31T13:22:21;37.10;;;26.05;;
50769;SDS011;36740;48.698;11.472;2022-10-31T13:25:13;35.10;;;26.10;;
50769;SDS011;36740;48.698;11.472;2022-10-31T13:28:09;38.78;;;27.73;;
50769;SDS011;36740;48.698;11.472;2022-10-31T13:31:06;43.72;;;30.83;;
50769;SDS011;36740;48.698;11.472;2022-10-31T13:33:56;47.58;;;29.52;;
50769;SDS011;36740;48.698;11.472;2022-10-31T13:37:25;43.63;;;25.27;;
50769;SDS011;36740;48.698;11.472;2022-10-31T13:40:06;44.08;;;27.20;;
50769;SDS011;36740;48.698;11.472;2022-10-31T13:43:11;43.78;;;32.05;;
50769;SDS011;36740;48.698;11.472;2022-10-31T13:45:58;40.80;;;25.98;;
50769;SDS011;36740;48.698;11.472;2022-10-31T13:48:44;45.40;;;32.63;;
50769;SDS011;36740;48.698;11.472;2022-10-31T13:51:31;44.47;;;32.22;;
50769;SDS011;36740;48.698;11.472;2022-10-31T13:54:22;44.83;;;27.07;;
50769;SDS011;36740;48.698;11.472;2022-10-31T14:00:24;37.63;;;26.98;;
50769;SDS011;36740;48.698;11.472;2022-10-31T14:03:18;58.05;;;28.63;;
50769;SDS011;36740;48.698;11.472;2022-10-31T14:06:06;50.35;;;32.55;;
50769;SDS011;36740;48.698;11.472;2022-10-31T14:08:54;46.10;;;29.85;;
50769;SDS011;36740;48.698;11.472;2022-10-31T14:11:40;40.15;;;28.33;;
50769;SDS011;36740;48.698;11.472;2022-10-31T14:14:34;61.85;;;30.55;;
50769;SDS011;36740;48.698;11.472;2022-10-31T14:17:28;54.75;;;31.17;;
50769;SDS011;36740;48.698;11.472;2022-10-31T14:20:24;42.25;;;25.67;;
50769;SDS011;36740;48.698;11.472;2022-10-31T14:23:38;48.58;;;32.08;;
50769;SDS011;36740;48.698;11.472;2022-10-31T14:34:59;43.00;;;31.08;;
50769;SDS011;36740;48.698;11.472;2022-10-31T14:53:03;47.17;;;31.92;;
50769;SDS011;36740;48.698;11.472;2022-10-31T14:55:52;39.92;;;27.77;;
50769;SDS011;36740;48.698;11.472;2022-10-31T15:01:32;66.35;;;34.65;;
50769;SDS011;36740;48.698;11.472;2022-10-31T15:04:22;65.25;;;32.47;;
50769;SDS011;36740;48.698;11.472;2022-10-31T15:07:14;67.25;;;31.77;;
50769;SDS011;36740;48.698;11.472;2022-10-31T15:10:19;45.33;;;31.73;;
50769;SDS011;36740;48.698;11.472;2022-10-31T15:13:10;54.40;;;30.10;;
50769;SDS011;36740;48.698;11.472;2022-10-31T15:16:07;47.53;;;33.45;;
50769;SDS011;36740;48.698;11.472;2022-10-31T15:18:56;55.25;;;29.58;;
50769;SDS011;36740;48.698;11.472;2022-10-31T15:21:44;39.33;;;29.50;;
50769;SDS011;36740;48.698;11.472;2022-10-31T15:24:35;42.42;;;27.10;;
50769;SDS011;36740;48.698;11.472;2022-10-31T15:27:23;37.10;;;24.98;;
50769;SDS011;36740;48.698;11.472;2022-10-31T15:30:17;39.72;;;25.58;;
50769;SDS011;36740;48.698;11.472;2022-10-31T15:33:14;41.97;;;27.88;;
50769;SDS011;36740;48.698;11.472;2022-10-31T15:36:19;37.20;;;26.45;;
50769;SDS011;36740;48.698;11.472;2022-10-31T15:39:11;58.25;;;31.08;;
50769;SDS011;36740;48.698;11.472;2022-10-31T15:41:57;36.27;;;23.27;;
50769;SDS011;36740;48.698;11.472;2022-10-31T15:44:45;38.08;;;26.30;;
50769;SDS011;36740;48.698;11.472;2022-10-31T15:47:35;34.72;;;25.25;;
50769;SDS011;36740;48.698;11.472;2022-10-31T15:50:27;37.08;;;27.15;;
50769;SDS011;36740;48.698;11.472;2022-10-31T15:53:20;56.90;;;27.92;;
50769;SDS011;36740;48.698;11.472;2022-10-31T15:56:07;34.03;;;22.00;;
50769;SDS011;36740;48.698;11.472;2022-10-31T15:58:56;54.03;;;25.67;;
50769;SDS011;36740;48.698;11.472;2022-10-31T16:01:44;36.85;;;22.98;;
50769;SDS011;36740;48.698;11.472;2022-10-31T16:04:55;43.00;;;26.65;;
50769;SDS011;36740;48.698;11.472;2022-10-31T16:07:50;53.95;;;24.80;;
50769;SDS011;36740;48.698;11.472;2022-10-31T16:10:37;56.25;;;25.05;;
50769;SDS011;36740;48.698;11.472;2022-10-31T16:13:28;38.80;;;24.88;;
50769;SDS011;36740;48.698;11.472;2022-10-31T16:16:16;33.30;;;24.63;;
50769;SDS011;36740;48.698;11.472;2022-10-31T16:19:03;30.45;;;21.80;;
50769;SDS011;36740;48.698;11.472;2022-10-31T16:21:54;35.20;;;25.02;;
50769;SDS011;36740;48.698;11.472;2022-10-31T16:24:56;37.83;;;24.02;;
50769;SDS011;36740;48.698;11.472;2022-10-31T16:27:48;41.63;;;24.33;;
50769;SDS011;36740;48.698;11.472;2022-10-31T16:30:40;36.33;;;23.65;;
50769;SDS011;36740;48.698;11.472;2022-10-31T16:33:32;31.55;;;22.27;;
50769;SDS011;36740;48.698;11.472;2022-10-31T16:39:13;26.05;;;20.48;;
50769;SDS011;36740;48.698;11.472;2022-10-31T16:41:59;32.30;;;20.33;;
50769;SDS011;36740;48.698;11.472;2022-10-31T16:44:46;30.90;;;22.02;;
50769;SDS011;36740;48.698;11.472;2022-10-31T16:47:33;36.78;;;23.95;;
50769;SDS011;36740;48.698;11.472;2022-10-31T16:50:24;32.67;;;25.60;;
50769;SDS011;36740;48.698;11.472;2022-10-31T16:53:11;30.20;;;22.85;;
50769;SDS011;36740;48.698;11.472;2022-10-31T16:56:01;23.27;;;18.33;;
50769;SDS011;36740;48.698;11.472;2022-10-31T16:58:48;28.20;;;19.02;;
50769;SDS011;36740;48.698;11.472;2022-10-31T17:01:35;25.48;;;16.85;;
50769;SDS011;36740;48.698;11.472;2022-10-31T17:04:21;28.05;;;18.17;;
50769;SDS011;36740;48.698;11.472;2022-10-31T17:07:06;24.10;;;16.80;;
50769;SDS011;36740;48.698;11.472;2022-10-31T17:09:52;24.25;;;16.02;;
50769;SDS011;36740;48.698;11.472;2022-10-31T17:12:39;27.25;;;19.65;;
50769;SDS011;36740;48.698;11.472;2022-10-31T17:15:27;24.27;;;17.52;;
50769;SDS011;36740;48.698;11.472;2022-10-31T17:18:23;57.72;;;18.15;;
50769;SDS011;36740;48.698;11.472;2022-10-31T17:21:12;27.38;;;19.00;;
50769;SDS011;36740;48.698;11.472;2022-10-31T17:24:02;44.00;;;21.20;;
50769;SDS011;36740;48.698;11.472;2022-10-31T17:26:48;25.98;;;15.15;;
50769;SDS011;36740;48.698;11.472;2022-10-31T17:29:34;24.48;;;15.95;;
50769;SDS011;36740;48.698;11.472;2022-10-31T17:32:21;26.23;;;17.60;;
50769;SDS011;36740;48.698;11.472;2022-10-31T17:35:07;18.05;;;12.75;;
50769;SDS011;36740;48.698;11.472;2022-10-31T17:37:54;21.38;;;15.23;;
50769;SDS011;36740;48.698;11.472;2022-10-31T17:40:40;52.10;;;20.25;;
50769;SDS011;36740;48.698;11.472;2022-10-31T17:43:26;23.30;;;17.42;;
50769;SDS011;36740;48.698;11.472;2022-10-31T17:46:12;28.20;;;15.75;;
50769;SDS011;36740;48.698;11.472;2022-10-31T17:48:58;22.05;;;14.05;;
50769;SDS011;36740;48.698;11.472;2022-10-31T17:51:45;20.05;;;13.25;;
50769;SDS011;36740;48.698;11.472;2022-10-31T17:54:31;18.60;;;13.23;;
50769;SDS011;36740;48.698;11.472;2022-10-31T17:57:17;19.75;;;14.38;;
50769;SDS011;36740;48.698;11.472;2022-10-31T18:00:03;18.45;;;12.48;;
50769;SDS011;36740;48.698;11.472;2022-10-31T18:02:51;18.63;;;13.02;;
50769;SDS011;36740;48.698;11.472;2022-10-31T18:05:37;20.73;;;13.52;;
50769;SDS011;36740;48.698;11.472;2022-10-31T18:08:23;20.52;;;13.77;;
50769;SDS011;36740;48.698;11.472;2022-10-31T18:11:19;23.48;;;15.48;;
50769;SDS011;36740;48.698;11.472;2022-10-31T18:14:07;20.65;;;14.75;;
50769;SDS011;36740;48.698;11.472;2022-10-31T18:16:53;19.90;;;13.73;;
50769;SDS011;36740;48.698;11.472;2022-10-31T18:19:39;20.10;;;12.75;;
50769;SDS011;36740;48.698;11.472;2022-10-31T18:22:25;40.63;;;14.82;;
50769;SDS011;36740;48.698;11.472;2022-10-31T18:25:10;20.02;;;12.82;;
50769;SDS011;36740;48.698;11.472;2022-10-31T18:27:56;18.33;;;11.85;;
50769;SDS011;36740;48.698;11.472;2022-10-31T18:30:42;16.80;;;9.52;;
50769;SDS011;36740;48.698;11.472;2022-10-31T18:33:28;19.30;;;14.75;;
50769;SDS011;36740;48.698;11.472;2022-10-31T18:36:14;21.48;;;15.93;;